• Join FlightAware (Why Join?)
  • Login
  • US Flag 
06:48AM EDT


 

Airport Tracker/Info


-or-


 

Live Flight TrackerFlight Track Log ✈ SWA2353 ✈ 28-Apr-2013 ✈ KSTL - KBWI

Flight Track Log - Related Links

Times and Time Zones

All times are in EDT time to prevent confusion due to time zone crossing. See the SWA2353 flight status page for this flight to view local times or setup timezone preferences in your user account.

Time Position Orientation Groundspeed Altitude Reporting Facility
EDT Latitude Longitude Course Direction KTS MPH feet Rate Location/Type
11:02PM 38.8133 -90.3869 37° Northeast 255 293 4,200  Level Kansas City Center
11:03PM 38.8175 -90.3075 86° East 234 269 6,700 2,820 Climbing Kansas City Center
11:04PM 38.8139 -90.2042 93° East 279 321 10,000 3,120 Climbing Kansas City Center
11:05PM 38.8108 -90.0864 92° East 319 367 13,100 3,240 Climbing Kansas City Center
11:06PM 38.8067 -89.9569 92° East 356 410 16,600 3,540 Climbing Kansas City Center
11:07PM 38.8239 -89.5000 83° East  Level Estimated
11:07PM 38.8014 -89.7922 92° East 378 435 20,400  Level Kansas City Center
11:08PM 38.7961 -89.6464 93° East 396 456 23,400 2,700 Climbing Kansas City Center
11:09PM 38.7936 -89.4978 91° East 416 479 25,900 2,340 Climbing Kansas City Center
11:10PM 38.8128 -89.3478 81° East 426 490 28,200 2,100 Climbing Kansas City Center
11:11PM 38.8319 -89.1942 81° East 436 502 30,200 1,860 Climbing Kansas City Center
11:12PM 38.8533 -89.0231 81° East 452 520 32,100 1,920 Climbing Kansas City Center
11:13PM 38.8747 -88.8814 79° East 455 524 34,200 1,920 Climbing Kansas City Center
11:14PM 38.8950 -88.7247 81° East 450 518 36,100 1,680 Climbing Kansas City Center
11:15PM 38.9158 -88.5472 81° East 445 512 37,700 1,200 Climbing Kansas City Center
11:16PM 38.9472 -88.3939 75° East 440 506 38,600 900 Climbing Kansas City Center
11:17PM 38.9897 -88.2392 70° East 451 519 39,600 840 Climbing Kansas City Center
11:18PM 39.0133 -88.1508 71° East 452 520 40,100 600 Climbing Indianapolis Center
11:19PM 39.0561 -87.9928 71° East 461 531 40,700 420 Climbing Indianapolis Center
11:20PM 39.1011 -87.8325 70° East 471 542 41,000 120 Climbing Indianapolis Center
11:21PM 39.1406 -87.6700 73° East 472 543 41,000  Level Indianapolis Center
11:22PM 39.1625 -87.4872 81° East 474 545 41,000  Level Indianapolis Center
11:23PM 39.1850 -87.3197 80° East 474 545 41,000  Level Indianapolis Center
11:24PM 39.2053 -87.1503 81° East 475 547 41,000  Level Indianapolis Center
11:25PM 39.2258 -86.9817 81° East 474 545 41,000  Level Indianapolis Center
11:26PM 39.2464 -86.8144 81° East 472 543 41,000  Level Indianapolis Center
11:27PM 39.2633 -86.6478 82° East 469 540 41,000  Level Indianapolis Center
11:28PM 39.2761 -86.4811 84° East 467 537 41,000  Level Indianapolis Center
11:29PM 39.2922 -86.2856 84° East 469 540 41,000  Level Indianapolis Center
11:30PM 39.3061 -86.1169 84° East 472 543 41,000  Level Indianapolis Center
11:31PM 39.3194 -85.9478 84° East 475 547 41,000  Level Indianapolis Center
11:32PM 39.3333 -85.7783 84° East 475 547 41,000  Level Indianapolis Center
11:33PM 39.3464 -85.6089 84° East 475 547 41,000  Level Indianapolis Center
11:34PM 39.3603 -85.4411 84° East 471 542 41,000  Level Indianapolis Center
11:35PM 39.3722 -85.2725 85° East 471 542 41,000  Level Indianapolis Center
11:36PM 39.3839 -85.1039 85° East 470 541 41,000  Level Indianapolis Center
11:37PM 39.3967 -84.9336 84° East 474 545 41,000  Level Indianapolis Center
11:38PM 39.4081 -84.7614 85° East 474 545 41,000  Level Indianapolis Center
11:39PM 39.4192 -84.5881 85° East 478 550 41,000  Level Indianapolis Center
11:40PM 39.4333 -84.4172 84° East 477 549 41,000  Level Indianapolis Center
11:41PM 39.4428 -84.2447 86° East 477 549 41,000  Level Indianapolis Center
11:42PM 39.4539 -84.0739 85° East 475 547 41,000  Level Indianapolis Center
11:43PM 39.4644 -83.9044 85° East 472 543 41,000  Level Indianapolis Center
11:44PM 39.4744 -83.7347 86° East 472 543 41,000  Level Indianapolis Center
11:45PM 39.4842 -83.5656 86° East 472 543 41,000  Level Indianapolis Center
11:46PM 39.4939 -83.3972 86° East 471 542 41,000  Level Indianapolis Center
11:47PM 39.5033 -83.2297 86° East 468 539 41,000  Level Indianapolis Center
11:48PM 39.5125 -83.0608 86° East 469 540 41,000  Level Indianapolis Center
11:49PM 39.5219 -82.8928 86° East 468 539 41,000  Level Indianapolis Center
11:50PM 39.5306 -82.7222 86° East 471 542 41,000  Level Indianapolis Center
11:51PM 39.5394 -82.5508 86° East 473 544 41,000  Level Indianapolis Center
11:52PM 39.5478 -82.3781 86° East 477 549 41,000  Level Indianapolis Center
11:53PM 39.5558 -82.2058 86° East 477 549 41,000  Level Indianapolis Center
11:54PM 39.5656 -82.0203 86° East 477 549 41,000  Level Indianapolis Center
11:55PM 39.5733 -81.8461 87° East 480 552 41,000  Level Indianapolis Center
11:56PM 39.5808 -81.6742 87° East 477 549 41,000  Level Indianapolis Center
11:57PM 39.5878 -81.5014 87° East 478 550 41,000  Level Indianapolis Center
11:58PM 39.6000 -81.2942 86° East 476 548 41,000  Level Cleveland Center
11:59PM 39.6053 -81.1219 88° East 476 548 41,000  Level Cleveland Center
12:00AM 39.6075 -80.9783 89° East 483 556 41,000  Level Indianapolis Center
12:01AM 39.6133 -80.8047 87° East 483 556 41,000  Level Indianapolis Center
12:02AM 39.6122 -80.6289 90° East 487 560 41,000  Level Indianapolis Center
12:03AM 39.5994 -80.4558 95° East 484 557 41,000  Level Indianapolis Center
12:04AM 39.5967 -80.3558 92° East 468 539 41,000  Level Washington Center
12:05AM 39.5825 -80.1825 96° East 479 551 41,000  Level Washington Center
12:06AM 39.5722 -80.0122 94° East 479 551 41,000  Level Washington Center
12:07AM 39.5575 -79.8444 96° East 479 551 41,000  Level Washington Center
12:08AM 39.5444 -79.6742 96° East 479 551 41,000 -480 Level Washington Center
12:09AM 39.5308 -79.5200 96° East 484 557 40,100 -1,740 Descending Washington Center
12:10AM 39.5178 -79.3469 96° East 484 557 37,600 -2,940 Descending Washington Center
12:11AM 39.5006 -79.1525 96° East 490 564 34,400 -3,240 Descending Washington Center
12:12AM 39.4853 -78.9661 96° East 504 580 31,200 -2,700 Descending Washington Center
12:13AM 39.4708 -78.8017 96° East 517 595 29,100 -2,100 Descending Washington Center
12:14AM 39.4531 -78.6019 97° East 512 589 27,000 -2,580 Descending Washington Center
12:15AM 39.4403 -78.4508 96° East 496 571 24,000 -2,700 Descending Washington Center
12:16AM 39.4272 -78.2864 96° East 476 548 21,600 -2,340 Descending Washington Center
12:17AM 39.4117 -78.1381 98° East 444 511 19,300 -2,220 Descending Washington Center
12:18AM 39.3981 -77.9900 97° East 425 489 17,400 -2,220 Descending Washington Center
12:19AM 39.3861 -77.8525 96° East 401 461 15,000 -1,200 Descending Washington Center
12:20AM 39.4011 -77.7161 82° East 387 445 15,000 -1,140 Level Washington Center
12:21AM 39.3908 -77.5894 96° East 372 428 12,800 -2,220 Descending Washington Center
12:22AM 39.3742 -77.4656 100° East 353 406 10,600 -1,680 Descending Washington Center
12:23AM 39.3500 -77.3167 102° East 292 336 9,200 -1,320 Descending Potomac TRACON
12:24AM 39.3500 -77.2333 90° East 292 336 7,900 -1,440 Descending Potomac TRACON
12:25AM 39.3333 -77.1500 104° East 288 331 6,700 -1,200 Descending Potomac TRACON
12:26AM 39.3167 -77.0333 100° East 266 306 5,500 -1,380 Descending Potomac TRACON
12:27AM 39.3167 -76.9333 90° East 250 288 3,900 -1,200 Descending Potomac TRACON
12:28AM 39.3000 -76.8500 104° East 206 237 3,100 -720 Descending Potomac TRACON
12:29AM 39.2833 -76.7833 108° East 181 208 2,500 -600 Descending Potomac TRACON
12:30AM 39.2667 -76.7500 123° Southeast 155 178 2,000 -600 Descending Potomac TRACON
12:31AM 39.2333 -76.7167 142° Southeast 121 139 1,300 -720 Descending Potomac TRACON
12:32AM 39.2000 -76.7000 159° South 120 138 600 -720 Descending Potomac TRACON
12:34AM 39.1754 -76.6683 142° Southeast  Level Estimated
12:41AM 39.1754 -76.6683 142° Southeast  Level Estimated
12:42AM 39.1754 -76.6683 142° Southeast  Level Estimated
12:43AM 39.1754 -76.6683 142° Southeast  Level Estimated
12:44AM 39.1754 -76.6683 142° Southeast  Level Estimated
12:45AM 39.1754 -76.6683 142° Southeast  Level Estimated
12:46AM 39.1754 -76.6683 142° Southeast  Level Estimated